Warm Springs Summit, Nevada Weather observations

Data are for observation ending at time listed.
 Day   Time    Ave.   Ave.  Ave.  Vector   Max.   Stn.    Total    Solar   Ave.  
  of    of     Air    Rel.  Wind   Wind    Wind   Baro.  Precip.   Rad.    Soil  
Year   Day     Temp.  Hum.  Speed  Dir.    Gust   Pres.                    Temp. 
2014   (PST)    F      %     mph   deg.    mph     mb.     in.     W/m2     F   
------------------------------------------------------------------------------
 293    9:30   61.4    32    9.9   162     17.2   773.1    0.00     587    58.9
 293    9:40   61.1    33   11.2   161     18.2   773.0    0.00     608    59.0
 293    9:50   61.1    32   13.3   157     24.5   773.0    0.00     622    59.1
 293   10:00   62.3    31   14.1   155     19.7   772.9    0.00     640    59.3
 293   10:10   62.8    30   17.5   173     30.8   772.8    0.00     656    59.5
 293   10:20   62.5    30   19.9   194     31.1   772.7    0.00     672    59.6
 293   10:30   63.3    28   18.5   184     28.4   772.6    0.00     687    59.8
 293   10:40   62.9    29   19.6   184     29.6   772.6    0.00     690    60.0
 293   10:50   63.2    29   19.1   192     30.1   772.5    0.00     648    60.2
 293   11:00   63.0    28   20.9   196     29.3   772.3    0.00     726    60.5
 293   11:10   63.2    28   19.3   186     29.6   772.2    0.00     651    60.7
 293   11:20   63.0    27   22.5   208     32.3   772.0    0.00     725    60.9
 293   11:30   61.7    28   20.5   214     32.1   771.9    0.00     452    61.1
 293   11:40   62.0    29   22.9   213     41.7   771.6    0.00     577    61.3
 293   11:50   62.8    28   28.9   215     39.4   771.3    0.00     718    61.6
 293   12:00   62.5    28   28.8   208     36.4   771.2    0.00     649    61.8
 293   12:10   63.2    28   25.3   210     35.4   771.3    0.00     757    62.0
 293   12:20   64.0    27   24.1   203     35.5   771.2    0.00     760    62.2
 293   12:30   63.9    27   25.1   208     37.7   771.2    0.00     762    62.4
 293   12:40   64.3    26   22.8   210     30.9   771.2    0.00     734    62.5
 293   12:50   64.2    26   24.6   208     31.9   771.0    0.00     635    62.7
 293   13:00   64.1    25   26.7   211     34.5   770.8    0.00     729    62.9
 293   13:10   63.8    26   24.4   213     35.7   770.8    0.00     701    63.1
 293   13:20   64.2    26   24.0   212     33.6   770.8    0.00     665    63.3
 293   13:30   64.5    26   22.4   212     32.2   770.8    0.00     641    63.4
 293   13:40   64.2    25   19.4   210     31.9   770.8    0.00     509    63.6
 293   13:50   63.9    26   22.0   213     36.5   770.7    0.00     343    63.8
 293   14:00   63.7    26   24.6   209     34.6   770.6    0.00     575    64.0
 293   14:10   63.2    26   29.7   213     40.1   770.3    0.00     435    64.1
 293   14:20   63.4    27   27.2   206     35.9   770.4    0.00     411    64.3
 293   14:30   63.3    26   26.0   204     35.3   770.4    0.00     355    64.4
 293   14:40   61.8    27   25.5   204     35.6   770.4    0.00     177    64.5
 293   14:50   61.8    28   25.9   204     32.6   770.3    0.00     272    64.6
 293   15:00   62.6    25   29.1   214     37.3   770.2    0.00     321    64.7
 293   15:10   62.7    25   26.4   207     37.2   770.2    0.00     389    64.8
 293   15:20   62.4    26   26.5   212     32.7   770.1    0.00     244    64.9
 293   15:30   61.2    27   24.7   205     33.2   770.1    0.00     110    65.0
 293   15:40   60.6    27   24.2   208     33.0   770.1    0.00     112    65.0
 293   15:50   60.0    30   23.2   213     32.4   770.1    0.00      57    65.0
 293   16:00   59.5    29   27.1   211     34.8   769.9    0.00      41    65.0
 293   16:10   59.3    30   25.1   211     31.3   769.9    0.00      35    65.0
 293   16:20   59.2    30   22.9   204     29.6   770.0    0.00      43    65.0
 293   16:30   59.0    30   22.2   208     31.0   770.0    0.00      23    65.0
 293   16:40   58.7    31   25.5   208     33.3   769.7    0.00      17    65.0
 293   16:50   58.9    31   20.0   207     27.0   769.9    0.00      14    65.0
 293   17:00   58.6    31   16.1   192     25.6   770.0    0.00       6    64.9
 293   17:10   58.3    32   13.6   190     19.9   770.0    0.00       2    64.8
 293   17:20   58.0    33   11.3   198     15.9   770.1    0.00       0    64.8
 293   17:30   57.7    34   13.9   184     17.7   770.0    0.00       0    64.7
 293   17:40   57.5    35   13.2   193     18.5   770.1    0.00       0    64.7
 293   17:50   57.5    35   16.4   214     24.9   770.1    0.00       0    64.6
 293   18:00   57.3    36   21.5   209     28.3   769.9    0.00       0    64.5
 293   18:10   57.0    38   22.5   209     29.5   769.9    0.00       0    64.4
 293   18:20   56.8    38   24.8   206     32.3   769.8    0.00       0    64.3
 293   18:30   56.4    39   20.8   210     27.8   769.9    0.00       0    64.3
 293   18:40   56.0    40   20.5   213     26.5   769.9    0.00       0    64.2
 293   18:50   55.8    40   18.5   215     25.0   770.0    0.00       0    64.1
 293   19:00   55.5    41   18.7   217     27.6   769.9    0.00       0    64.0
 293   19:10   55.3    41   22.0   213     27.0   769.8    0.00       0    63.9
 293   19:20   55.0    40   22.0   209     28.4   769.7    0.00       0    63.8
 293   19:30   54.8    40   20.0   204     26.8   769.8    0.00       0    63.7
 293   19:40   54.6    40   19.2   203     25.4   769.8    0.00       0    63.6
 293   19:50   54.6    40   21.3   200     28.6   769.8    0.00       0    63.5
 293   20:00   54.7    40   21.3   198     30.6   769.8    0.00       0    63.4
 293   20:10   54.6    41   20.7   201     30.0   769.8    0.00       0    63.3
 293   20:20   54.6    41   24.7   202     36.2   769.6    0.00       0    63.2
 293   20:30   54.6    40   28.1   205     39.6   769.5    0.00       0    63.1
 293   20:40   54.6    40   32.3   212     43.3   769.3    0.00       0    63.0
 293   20:50   54.8    39   36.1   211     45.3   769.2    0.00       0    62.9
 293   21:00   54.5    39   32.4   204     40.6   769.3    0.00       0    62.8
 293   21:10   54.4    38   34.6   206     43.3   769.1    0.00       0    62.7
 293   21:20   54.5    36   33.3   204     43.8   769.2    0.00       0    62.6
 293   21:30   54.5    36   32.2   204     39.0   769.3    0.00       0    62.5
 293   21:40   54.2    36   29.9   206     38.6   769.4    0.00       0    62.4
 293   21:50   54.0    36   27.4   204     34.9   769.5    0.00       0    62.3
 293   22:00   53.5    38   23.7   206     28.6   769.6    0.00       0    62.3
 293   22:10   53.6    38   24.2   202     29.3   769.4    0.00       0    62.2
 293   22:20   53.8    38   26.0   206     33.0   769.4    0.00       0    62.1
 293   22:30   53.5    38   22.8   206     26.8   769.5    0.00       0    62.0
 293   22:40   53.4    39   20.6   205     24.8   769.5    0.00       0    61.9
 293   22:50   53.4    39   20.7   204     26.1   769.4    0.00       0    61.8
 293   23:00   53.1    39   18.5   206     22.2   769.4    0.00       0    61.7
 293   23:10   53.2    40   18.7   207     22.3   769.5    0.00       0    61.6
 293   23:20   53.0    40   16.8   214     21.3   769.6    0.00       0    61.5
 293   23:30   52.7    40   15.8   204     17.7   769.6    0.00       0    61.5
 293   23:40   52.3    41   15.8   211     19.1   769.7    0.00       0    61.4
 293   23:50   52.1    42   14.8   205     18.5   769.6    0.00       0    61.3
 294    0:00   52.2    42   11.6   218     16.0   769.8    0.00       0    61.2
 294    0:10   51.5    43   12.1   238     16.7   769.8    0.00       0    61.1
 294    0:20   51.7    43   19.1   239     27.3   769.6    0.00       0    61.0
 294    0:30   52.0    42   24.3   234     32.3   769.4    0.00       0    60.9
 294    0:40   51.6    43   22.8   229     30.5   769.4    0.00       0    60.9
 294    0:50   52.0    42   27.5   214     36.2   769.1    0.00       0    60.8
 294    1:00   52.1    42   27.5   214     35.2   769.2    0.00       0    60.7
 294    1:10   52.0    43   22.5   214     30.5   769.5    0.00       0    60.6
 294    1:20   51.6    43   20.2   224     30.9   769.5    0.00       0    60.5
 294    1:30   51.3    44   20.4   228     28.2   769.6    0.00       0    60.4
 294    1:40   50.8    46   22.1   238     28.0   769.6    0.00       0    60.4
 294    1:50   50.7    46   21.8   236     29.8   769.6    0.00       0    60.3
 294    2:00   50.4    47   22.2   236     29.3   769.5    0.00       0    60.2
 294    2:10   50.3    48   21.7   232     30.5   769.4    0.00       0    60.1
 294    2:20   50.0    48   22.3   238     29.2   769.4    0.00       0    60.0
 294    2:30   49.8    49   22.6   233     30.4   769.3    0.00       0    60.0
 294    2:40   49.4    51   22.9   242     28.6   769.4    0.00       0    59.9
 294    2:50   49.6    50   27.5   248     32.1   769.3    0.00       0    59.8
 294    3:00   49.0    52   26.5   249     32.9   769.3    0.00       0    59.7
 294    3:10   49.1    51   28.6   248     33.3   769.3    0.00       0    59.6
 294    3:20   49.1    51   28.7   247     35.3   769.3    0.00       0    59.6
 294    3:30   48.7    52   29.7   249     35.9   769.3    0.00       0    59.5
 294    3:40   48.4    52   29.7   250     37.4   769.4    0.00       0    59.4
 294    3:50   48.1    53   29.7   248     34.8   769.4    0.00       0    59.4
 294    4:00   47.5    54   27.7   250     34.9   769.5    0.00       0    59.3
 294    4:10   46.7    56   24.8   252     33.9   769.5    0.00       0    59.2
 294    4:20   45.2    59   22.5   264     28.3   769.7    0.00       0    59.1
 294    4:30   45.2    59   23.8   268     29.1   769.9    0.00       0    59.1
 294    4:40   44.9    59   24.1   275     29.1   770.0    0.00       0    59.0
 294    4:50   45.2    56   22.8   269     28.9   770.0    0.00       0    58.9
 294    5:00   45.5    47   19.9   275     24.2   770.1    0.00       0    58.8
 294    5:10   44.9    45   16.6   280     19.2   770.2    0.00       0    58.8
 294    5:20   44.3    44   15.1   281     17.1   770.4    0.00       0    58.7
 294    5:30   44.5    39   13.4   286     15.8   770.5    0.00       0    58.6
 294    5:40   44.8    38   11.3   285     13.4   770.6    0.00       0    58.5
 294    5:50   45.3    35   10.9   279     12.4   770.6    0.00       1    58.4
 294    6:00   45.1    35   10.6   275     12.4   770.7    0.00       4    58.4
 294    6:10   45.3    35   10.0   282     12.5   770.7    0.00      10    58.3
 294    6:20   46.1    34    9.8   279     11.7   770.7    0.00      27    58.2
 294    6:30   46.4    34   10.0   286     11.5   770.8    0.00      54    58.1
 294    6:40   46.9    32    9.3   286     10.3   770.8    0.00      90    58.0
 294    6:50   47.0    33    9.6   275     11.4   770.8    0.00     130    57.9
 294    7:00   46.7    29   10.7   274     12.5   771.0    0.00     163    57.8
 294    7:10   46.4    29   11.4   277     14.8   771.1    0.00     194    57.7
 294    7:20   46.7    27   13.3   282     15.3   771.2    0.00     226    57.6
 294    7:30   46.9    28   12.5   287     13.8   771.3    0.00     258    57.5
 294    7:40   47.3    29    9.7   292     12.4   771.6    0.00     290    57.5
 294    7:50   48.2    27    7.0   281      9.0   771.8    0.00     322    57.4
 294    8:00   49.3    27    5.3   293      6.8   771.9    0.00     355    57.3
 294    8:10   49.7    28    6.5   305      9.5   771.9    0.00     372    57.3
 294    8:20   50.1    28    7.2   305      9.2   772.0    0.00     416    57.2
 294    8:30   50.8    27    6.0   305      8.6   772.0    0.00     444    57.2
 294    8:40   51.2    26    6.2   290      8.3   772.0    0.00     471    57.2
 294    8:50   52.2    23    5.3   299      7.8   772.1    0.00     497    57.2
 294    9:00   52.5    24    5.3   281      9.5   772.1    0.00     525    57.3
 294    9:10   52.3    26    7.4   272     10.3   772.1    0.00     547    57.3
 294    9:20   52.4    25    8.1   268     10.9   772.1    0.00     573    57.4

Return to Warm Springs Summit, Nevada graphs page.


Western Regional Climate Center,wrcc@dri.edu